sensor_id;sensor_type;location;lat;lon;timestamp;temperature;humidity
20670;DHT22;10494;50.868;4.180;2024-03-17T00:00:20;8.50;99.90
20670;DHT22;10494;50.868;4.180;2024-03-17T00:02:45;8.50;99.90
20670;DHT22;10494;50.868;4.180;2024-03-17T00:05:12;8.50;99.90
20670;DHT22;10494;50.868;4.180;2024-03-17T00:07:38;8.60;99.90
20670;DHT22;10494;50.868;4.180;2024-03-17T00:10:04;8.50;99.90
20670;DHT22;10494;50.868;4.180;2024-03-17T00:12:30;8.50;99.90
20670;DHT22;10494;50.868;4.180;2024-03-17T00:14:56;8.50;99.90
20670;DHT22;10494;50.868;4.180;2024-03-17T00:17:21;8.40;99.90
20670;DHT22;10494;50.868;4.180;2024-03-17T00:19:48;8.40;99.90
20670;DHT22;10494;50.868;4.180;2024-03-17T00:22:14;8.40;99.90
20670;DHT22;10494;50.868;4.180;2024-03-17T00:24:40;8.30;99.90
20670;DHT22;10494;50.868;4.180;2024-03-17T00:27:06;8.20;99.90
20670;DHT22;10494;50.868;4.180;2024-03-17T00:29:31;8.30;99.90
20670;DHT22;10494;50.868;4.180;2024-03-17T00:31:58;8.30;99.90
20670;DHT22;10494;50.868;4.180;2024-03-17T00:34:24;8.30;99.90
20670;DHT22;10494;50.868;4.180;2024-03-17T00:36:49;8.40;99.90
20670;DHT22;10494;50.868;4.180;2024-03-17T00:39:17;8.40;99.90
20670;DHT22;10494;50.868;4.180;2024-03-17T00:41:43;8.40;99.90
20670;DHT22;10494;50.868;4.180;2024-03-17T00:44:09;8.60;99.90
20670;DHT22;10494;50.868;4.180;2024-03-17T00:46:35;8.60;99.90
20670;DHT22;10494;50.868;4.180;2024-03-17T00:49:00;8.40;99.90
20670;DHT22;10494;50.868;4.180;2024-03-17T00:51:26;8.30;99.90
20670;DHT22;10494;50.868;4.180;2024-03-17T00:53:52;8.20;99.90
20670;DHT22;10494;50.868;4.180;2024-03-17T00:56:17;8.20;99.90
20670;DHT22;10494;50.868;4.180;2024-03-17T00:58:43;8.20;99.90
20670;DHT22;10494;50.868;4.180;2024-03-17T01:01:11;8.30;99.90
20670;DHT22;10494;50.868;4.180;2024-03-17T01:03:36;8.40;99.90
20670;DHT22;10494;50.868;4.180;2024-03-17T01:06:05;8.50;99.90
20670;DHT22;10494;50.868;4.180;2024-03-17T01:08:31;8.50;99.90
20670;DHT22;10494;50.868;4.180;2024-03-17T01:10:57;8.50;99.90
20670;DHT22;10494;50.868;4.180;2024-03-17T01:13:24;8.60;99.90
20670;DHT22;10494;50.868;4.180;2024-03-17T01:15:53;8.70;99.90
20670;DHT22;10494;50.868;4.180;2024-03-17T01:18:19;8.80;99.90
20670;DHT22;10494;50.868;4.180;2024-03-17T01:20:44;8.90;99.90
20670;DHT22;10494;50.868;4.180;2024-03-17T01:23:10;9.00;99.90
20670;DHT22;10494;50.868;4.180;2024-03-17T01:25:36;9.00;99.90
20670;DHT22;10494;50.868;4.180;2024-03-17T01:28:03;9.00;99.90
20670;DHT22;10494;50.868;4.180;2024-03-17T01:30:29;9.00;99.90
20670;DHT22;10494;50.868;4.180;2024-03-17T01:32:55;9.10;99.90
20670;DHT22;10494;50.868;4.180;2024-03-17T01:35:21;9.20;99.90
20670;DHT22;10494;50.868;4.180;2024-03-17T01:37:47;9.20;99.90
20670;DHT22;10494;50.868;4.180;2024-03-17T01:40:13;9.20;99.90
20670;DHT22;10494;50.868;4.180;2024-03-17T01:42:40;9.10;99.90
20670;DHT22;10494;50.868;4.180;2024-03-17T01:47:54;9.00;99.90
20670;DHT22;10494;50.868;4.180;2024-03-17T01:50:24;9.00;99.90
20670;DHT22;10494;50.868;4.180;2024-03-17T01:52:53;9.10;99.90
20670;DHT22;10494;50.868;4.180;2024-03-17T01:55:20;9.20;99.90
20670;DHT22;10494;50.868;4.180;2024-03-17T01:57:48;9.20;99.90
20670;DHT22;10494;50.868;4.180;2024-03-17T02:00:14;9.30;99.90
20670;DHT22;10494;50.868;4.180;2024-03-17T02:02:40;9.30;99.90
20670;DHT22;10494;50.868;4.180;2024-03-17T02:05:06;9.30;99.90
20670;DHT22;10494;50.868;4.180;2024-03-17T02:07:32;9.30;99.90
20670;DHT22;10494;50.868;4.180;2024-03-17T02:09:57;9.30;99.90
20670;DHT22;10494;50.868;4.180;2024-03-17T02:12:24;9.40;99.90
20670;DHT22;10494;50.868;4.180;2024-03-17T02:14:50;9.20;99.90
20670;DHT22;10494;50.868;4.180;2024-03-17T02:17:15;9.10;99.90
20670;DHT22;10494;50.868;4.180;2024-03-17T02:19:41;9.20;99.90
20670;DHT22;10494;50.868;4.180;2024-03-17T02:22:16;9.10;99.90
20670;DHT22;10494;50.868;4.180;2024-03-17T02:24:43;9.10;99.90
20670;DHT22;10494;50.868;4.180;2024-03-17T02:27:08;9.10;99.90
20670;DHT22;10494;50.868;4.180;2024-03-17T02:29:34;9.00;99.90
20670;DHT22;10494;50.868;4.180;2024-03-17T02:32:06;8.80;99.90
20670;DHT22;10494;50.868;4.180;2024-03-17T02:34:37;8.80;99.90
20670;DHT22;10494;50.868;4.180;2024-03-17T02:37:03;8.80;99.90
20670;DHT22;10494;50.868;4.180;2024-03-17T02:39:30;9.00;99.90
20670;DHT22;10494;50.868;4.180;2024-03-17T02:42:08;9.00;99.90
20670;DHT22;10494;50.868;4.180;2024-03-17T02:44:35;8.90;99.90
20670;DHT22;10494;50.868;4.180;2024-03-17T02:47:03;9.00;99.90
20670;DHT22;10494;50.868;4.180;2024-03-17T02:49:36;8.90;99.90
20670;DHT22;10494;50.868;4.180;2024-03-17T02:52:15;8.80;99.90
20670;DHT22;10494;50.868;4.180;2024-03-17T02:54:40;8.90;99.90
20670;DHT22;10494;50.868;4.180;2024-03-17T02:57:06;8.90;99.90
20670;DHT22;10494;50.868;4.180;2024-03-17T02:59:33;8.90;99.90
20670;DHT22;10494;50.868;4.180;2024-03-17T03:01:59;9.00;99.90
20670;DHT22;10494;50.868;4.180;2024-03-17T03:04:25;9.10;99.90
20670;DHT22;10494;50.868;4.180;2024-03-17T03:06:51;9.20;99.90
20670;DHT22;10494;50.868;4.180;2024-03-17T03:09:17;9.20;99.90
20670;DHT22;10494;50.868;4.180;2024-03-17T03:11:51;9.20;99.90
20670;DHT22;10494;50.868;4.180;2024-03-17T03:14:17;9.10;99.90
20670;DHT22;10494;50.868;4.180;2024-03-17T03:16:43;9.10;99.90
20670;DHT22;10494;50.868;4.180;2024-03-17T03:19:09;9.10;99.90
20670;DHT22;10494;50.868;4.180;2024-03-17T03:21:35;9.10;99.90
20670;DHT22;10494;50.868;4.180;2024-03-17T03:24:01;9.10;99.90
20670;DHT22;10494;50.868;4.180;2024-03-17T03:26:27;9.10;99.90
20670;DHT22;10494;50.868;4.180;2024-03-17T03:28:54;9.20;99.90
20670;DHT22;10494;50.868;4.180;2024-03-17T03:31:20;9.30;99.90
20670;DHT22;10494;50.868;4.180;2024-03-17T03:33:47;9.30;99.90
20670;DHT22;10494;50.868;4.180;2024-03-17T03:36:14;9.30;99.90
20670;DHT22;10494;50.868;4.180;2024-03-17T03:38:40;9.30;99.90
20670;DHT22;10494;50.868;4.180;2024-03-17T03:41:10;9.20;99.90
20670;DHT22;10494;50.868;4.180;2024-03-17T03:43:37;9.10;99.90
20670;DHT22;10494;50.868;4.180;2024-03-17T03:46:03;9.10;99.90
20670;DHT22;10494;50.868;4.180;2024-03-17T03:48:29;9.10;99.90
20670;DHT22;10494;50.868;4.180;2024-03-17T03:50:55;8.90;99.90
20670;DHT22;10494;50.868;4.180;2024-03-17T03:53:21;8.80;99.90
20670;DHT22;10494;50.868;4.180;2024-03-17T03:55:48;8.70;99.90
20670;DHT22;10494;50.868;4.180;2024-03-17T03:58:14;8.60;99.90
20670;DHT22;10494;50.868;4.180;2024-03-17T04:00:40;8.40;99.90
20670;DHT22;10494;50.868;4.180;2024-03-17T04:03:06;8.40;99.90
20670;DHT22;10494;50.868;4.180;2024-03-17T04:05:32;8.40;99.90
20670;DHT22;10494;50.868;4.180;2024-03-17T04:07:59;8.50;99.90
20670;DHT22;10494;50.868;4.180;2024-03-17T04:10:25;8.50;99.90
20670;DHT22;10494;50.868;4.180;2024-03-17T04:12:52;8.60;99.90
20670;DHT22;10494;50.868;4.180;2024-03-17T04:15:18;8.60;99.90
20670;DHT22;10494;50.868;4.180;2024-03-17T04:17:45;8.60;99.90
20670;DHT22;10494;50.868;4.180;2024-03-17T04:20:10;8.40;99.90
20670;DHT22;10494;50.868;4.180;2024-03-17T04:22:40;8.20;99.90
20670;DHT22;10494;50.868;4.180;2024-03-17T04:25:06;8.10;99.90
20670;DHT22;10494;50.868;4.180;2024-03-17T04:27:32;8.00;99.90
20670;DHT22;10494;50.868;4.180;2024-03-17T04:29:59;8.10;99.90
20670;DHT22;10494;50.868;4.180;2024-03-17T04:32:25;8.00;99.90
20670;DHT22;10494;50.868;4.180;2024-03-17T04:34:52;8.10;99.90
20670;DHT22;10494;50.868;4.180;2024-03-17T04:37:18;8.30;99.90
20670;DHT22;10494;50.868;4.180;2024-03-17T04:39:45;8.20;99.90
20670;DHT22;10494;50.868;4.180;2024-03-17T04:42:13;8.30;99.90
20670;DHT22;10494;50.868;4.180;2024-03-17T04:44:42;8.50;99.90
20670;DHT22;10494;50.868;4.180;2024-03-17T04:47:08;8.60;99.90
20670;DHT22;10494;50.868;4.180;2024-03-17T04:49:44;8.60;99.90
20670;DHT22;10494;50.868;4.180;2024-03-17T04:52:11;8.60;99.90
20670;DHT22;10494;50.868;4.180;2024-03-17T04:54:37;8.50;99.90
20670;DHT22;10494;50.868;4.180;2024-03-17T04:57:03;8.50;99.90
20670;DHT22;10494;50.868;4.180;2024-03-17T04:59:29;8.50;99.90
20670;DHT22;10494;50.868;4.180;2024-03-17T05:01:55;8.40;99.90
20670;DHT22;10494;50.868;4.180;2024-03-17T05:04:21;8.30;99.90
20670;DHT22;10494;50.868;4.180;2024-03-17T05:06:48;8.30;99.90
20670;DHT22;10494;50.868;4.180;2024-03-17T05:09:18;8.30;99.90
20670;DHT22;10494;50.868;4.180;2024-03-17T05:11:44;8.30;99.90
20670;DHT22;10494;50.868;4.180;2024-03-17T05:14:11;8.50;99.90
20670;DHT22;10494;50.868;4.180;2024-03-17T05:16:37;8.60;99.90
20670;DHT22;10494;50.868;4.180;2024-03-17T05:19:03;8.60;99.90
20670;DHT22;10494;50.868;4.180;2024-03-17T05:21:29;8.50;99.90
20670;DHT22;10494;50.868;4.180;2024-03-17T05:24:00;8.50;99.90
20670;DHT22;10494;50.868;4.180;2024-03-17T05:26:26;8.50;99.90
20670;DHT22;10494;50.868;4.180;2024-03-17T05:28:52;8.40;99.90
20670;DHT22;10494;50.868;4.180;2024-03-17T05:31:18;8.40;99.90
20670;DHT22;10494;50.868;4.180;2024-03-17T05:33:46;8.40;99.90
20670;DHT22;10494;50.868;4.180;2024-03-17T05:36:12;8.40;99.90
20670;DHT22;10494;50.868;4.180;2024-03-17T05:38:38;8.40;99.90
20670;DHT22;10494;50.868;4.180;2024-03-17T05:41:06;8.40;99.90
20670;DHT22;10494;50.868;4.180;2024-03-17T05:43:34;8.50;99.90
20670;DHT22;10494;50.868;4.180;2024-03-17T05:46:07;8.40;99.90
20670;DHT22;10494;50.868;4.180;2024-03-17T05:48:36;8.50;99.90
20670;DHT22;10494;50.868;4.180;2024-03-17T05:51:08;8.50;99.90
20670;DHT22;10494;50.868;4.180;2024-03-17T05:53:34;8.60;99.90
20670;DHT22;10494;50.868;4.180;2024-03-17T05:56:01;8.70;99.90
20670;DHT22;10494;50.868;4.180;2024-03-17T05:58:27;8.70;99.90
20670;DHT22;10494;50.868;4.180;2024-03-17T06:00:53;8.60;99.90
20670;DHT22;10494;50.868;4.180;2024-03-17T06:03:18;8.70;99.90
20670;DHT22;10494;50.868;4.180;2024-03-17T06:05:44;8.70;99.90
20670;DHT22;10494;50.868;4.180;2024-03-17T06:08:14;8.60;99.90
20670;DHT22;10494;50.868;4.180;2024-03-17T06:10:44;8.80;99.90
20670;DHT22;10494;50.868;4.180;2024-03-17T06:13:10;8.90;99.90
20670;DHT22;10494;50.868;4.180;2024-03-17T06:15:39;9.00;99.90
20670;DHT22;10494;50.868;4.180;2024-03-17T06:18:05;9.00;99.90
20670;DHT22;10494;50.868;4.180;2024-03-17T06:20:34;9.00;99.90
20670;DHT22;10494;50.868;4.180;2024-03-17T06:23:00;9.10;99.90
20670;DHT22;10494;50.868;4.180;2024-03-17T06:25:26;9.00;99.90
20670;DHT22;10494;50.868;4.180;2024-03-17T06:27:53;8.80;99.90
20670;DHT22;10494;50.868;4.180;2024-03-17T06:30:18;8.70;99.90
20670;DHT22;10494;50.868;4.180;2024-03-17T06:32:45;8.80;99.90
20670;DHT22;10494;50.868;4.180;2024-03-17T06:35:14;8.70;99.90
20670;DHT22;10494;50.868;4.180;2024-03-17T06:37:44;8.80;99.90
20670;DHT22;10494;50.868;4.180;2024-03-17T06:40:14;8.80;99.90
20670;DHT22;10494;50.868;4.180;2024-03-17T06:42:40;8.80;99.90
20670;DHT22;10494;50.868;4.180;2024-03-17T06:45:06;8.80;99.90
20670;DHT22;10494;50.868;4.180;2024-03-17T06:47:37;8.80;99.90
20670;DHT22;10494;50.868;4.180;2024-03-17T06:50:03;8.90;99.90
20670;DHT22;10494;50.868;4.180;2024-03-17T06:52:29;8.90;99.90
20670;DHT22;10494;50.868;4.180;2024-03-17T06:54:56;9.00;99.90
20670;DHT22;10494;50.868;4.180;2024-03-17T06:57:23;9.00;99.90
20670;DHT22;10494;50.868;4.180;2024-03-17T06:59:49;9.10;99.90
20670;DHT22;10494;50.868;4.180;2024-03-17T07:02:14;9.20;99.90
20670;DHT22;10494;50.868;4.180;2024-03-17T07:04:43;9.30;99.90
20670;DHT22;10494;50.868;4.180;2024-03-17T07:07:09;9.50;99.90
20670;DHT22;10494;50.868;4.180;2024-03-17T07:09:34;9.50;99.90
20670;DHT22;10494;50.868;4.180;2024-03-17T07:12:00;9.60;99.90
20670;DHT22;10494;50.868;4.180;2024-03-17T07:14:26;9.60;99.90
20670;DHT22;10494;50.868;4.180;2024-03-17T07:16:52;9.60;99.90
20670;DHT22;10494;50.868;4.180;2024-03-17T07:19:18;9.70;99.90
20670;DHT22;10494;50.868;4.180;2024-03-17T07:21:44;9.70;99.90
20670;DHT22;10494;50.868;4.180;2024-03-17T07:24:09;9.80;99.90
20670;DHT22;10494;50.868;4.180;2024-03-17T07:26:35;9.70;99.90
20670;DHT22;10494;50.868;4.180;2024-03-17T07:29:01;9.80;99.90
20670;DHT22;10494;50.868;4.180;2024-03-17T07:31:26;9.90;99.90
20670;DHT22;10494;50.868;4.180;2024-03-17T07:33:52;10.10;99.90
20670;DHT22;10494;50.868;4.180;2024-03-17T07:36:18;10.30;99.90
20670;DHT22;10494;50.868;4.180;2024-03-17T07:38:44;10.40;99.90
20670;DHT22;10494;50.868;4.180;2024-03-17T07:41:09;10.50;99.90
20670;DHT22;10494;50.868;4.180;2024-03-17T07:43:36;10.70;99.90
20670;DHT22;10494;50.868;4.180;2024-03-17T07:46:10;10.90;99.90
20670;DHT22;10494;50.868;4.180;2024-03-17T07:48:40;11.00;99.90
20670;DHT22;10494;50.868;4.180;2024-03-17T07:51:14;11.00;99.90
20670;DHT22;10494;50.868;4.180;2024-03-17T07:53:44;11.00;99.90
20670;DHT22;10494;50.868;4.180;2024-03-17T07:56:14;11.00;99.90
20670;DHT22;10494;50.868;4.180;2024-03-17T07:58:42;11.00;99.90
20670;DHT22;10494;50.868;4.180;2024-03-17T08:01:10;11.00;99.90
20670;DHT22;10494;50.868;4.180;2024-03-17T08:03:38;11.10;99.90
20670;DHT22;10494;50.868;4.180;2024-03-17T08:06:06;11.00;99.90
20670;DHT22;10494;50.868;4.180;2024-03-17T08:08:33;11.10;99.90
20670;DHT22;10494;50.868;4.180;2024-03-17T08:10:59;11.00;99.90
20670;DHT22;10494;50.868;4.180;2024-03-17T08:13:26;11.00;99.90
20670;DHT22;10494;50.868;4.180;2024-03-17T08:15:57;11.10;99.90
20670;DHT22;10494;50.868;4.180;2024-03-17T08:18:23;11.10;99.90
20670;DHT22;10494;50.868;4.180;2024-03-17T08:20:49;11.10;99.90
20670;DHT22;10494;50.868;4.180;2024-03-17T08:23:15;11.20;99.90
20670;DHT22;10494;50.868;4.180;2024-03-17T08:25:41;11.30;99.90
20670;DHT22;10494;50.868;4.180;2024-03-17T08:28:06;11.40;99.90
20670;DHT22;10494;50.868;4.180;2024-03-17T08:30:33;11.60;99.90
20670;DHT22;10494;50.868;4.180;2024-03-17T08:32:59;11.50;99.90
20670;DHT22;10494;50.868;4.180;2024-03-17T08:35:25;11.60;99.90
20670;DHT22;10494;50.868;4.180;2024-03-17T08:37:50;11.50;99.90
20670;DHT22;10494;50.868;4.180;2024-03-17T08:40:17;11.60;99.90
20670;DHT22;10494;50.868;4.180;2024-03-17T08:42:43;11.60;99.90
20670;DHT22;10494;50.868;4.180;2024-03-17T08:45:11;11.70;99.90
20670;DHT22;10494;50.868;4.180;2024-03-17T08:47:37;11.70;99.90
20670;DHT22;10494;50.868;4.180;2024-03-17T08:50:02;11.50;99.90
20670;DHT22;10494;50.868;4.180;2024-03-17T08:52:33;11.40;99.90
20670;DHT22;10494;50.868;4.180;2024-03-17T08:54:58;11.10;99.90
20670;DHT22;10494;50.868;4.180;2024-03-17T08:57:25;11.10;99.90
20670;DHT22;10494;50.868;4.180;2024-03-17T08:59:51;11.00;99.90
20670;DHT22;10494;50.868;4.180;2024-03-17T09:02:20;11.10;99.90
20670;DHT22;10494;50.868;4.180;2024-03-17T09:04:48;11.10;99.90
20670;DHT22;10494;50.868;4.180;2024-03-17T09:07:14;11.00;99.90
20670;DHT22;10494;50.868;4.180;2024-03-17T09:09:41;11.10;99.90
20670;DHT22;10494;50.868;4.180;2024-03-17T09:12:07;11.00;99.90
20670;DHT22;10494;50.868;4.180;2024-03-17T09:14:33;11.10;99.90
20670;DHT22;10494;50.868;4.180;2024-03-17T09:16:59;11.10;99.90
20670;DHT22;10494;50.868;4.180;2024-03-17T09:19:25;11.20;99.90
20670;DHT22;10494;50.868;4.180;2024-03-17T09:21:50;11.10;99.90
20670;DHT22;10494;50.868;4.180;2024-03-17T09:24:16;11.10;99.90
20670;DHT22;10494;50.868;4.180;2024-03-17T09:26:41;11.10;99.90
20670;DHT22;10494;50.868;4.180;2024-03-17T09:29:07;11.20;99.90
20670;DHT22;10494;50.868;4.180;2024-03-17T09:31:33;11.30;99.90
20670;DHT22;10494;50.868;4.180;2024-03-17T09:34:04;11.30;99.90
20670;DHT22;10494;50.868;4.180;2024-03-17T09:36:29;11.30;99.90
20670;DHT22;10494;50.868;4.180;2024-03-17T09:38:56;11.40;99.90
20670;DHT22;10494;50.868;4.180;2024-03-17T09:41:24;11.60;99.90
20670;DHT22;10494;50.868;4.180;2024-03-17T09:43:55;11.60;99.90
20670;DHT22;10494;50.868;4.180;2024-03-17T09:46:26;11.60;99.90
20670;DHT22;10494;50.868;4.180;2024-03-17T09:48:53;11.70;99.90
20670;DHT22;10494;50.868;4.180;2024-03-17T09:51:24;11.90;99.90
20670;DHT22;10494;50.868;4.180;2024-03-17T09:53:51;11.90;99.90
20670;DHT22;10494;50.868;4.180;2024-03-17T09:56:19;12.00;99.90
20670;DHT22;10494;50.868;4.180;2024-03-17T09:58:49;11.90;99.90
20670;DHT22;10494;50.868;4.180;2024-03-17T10:01:15;12.10;99.90
20670;DHT22;10494;50.868;4.180;2024-03-17T10:06:48;12.30;99.90
20670;DHT22;10494;50.868;4.180;2024-03-17T10:09:17;12.40;99.90
20670;DHT22;10494;50.868;4.180;2024-03-17T10:11:47;12.40;99.90
20670;DHT22;10494;50.868;4.180;2024-03-17T10:14:16;12.30;99.90
20670;DHT22;10494;50.868;4.180;2024-03-17T10:16:43;12.40;99.90
20670;DHT22;10494;50.868;4.180;2024-03-17T10:19:14;12.50;99.90
20670;DHT22;10494;50.868;4.180;2024-03-17T10:21:43;12.50;99.90
20670;DHT22;10494;50.868;4.180;2024-03-17T10:24:26;12.50;99.90
20670;DHT22;10494;50.868;4.180;2024-03-17T10:26:53;12.50;99.90
20670;DHT22;10494;50.868;4.180;2024-03-17T10:31:55;12.90;99.90
20670;DHT22;10494;50.868;4.180;2024-03-17T10:34:22;13.10;99.90
20670;DHT22;10494;50.868;4.180;2024-03-17T10:37:24;13.10;99.90
20670;DHT22;10494;50.868;4.180;2024-03-17T10:39:46;13.00;99.90
20670;DHT22;10494;50.868;4.180;2024-03-17T10:42:24;13.20;99.90
20670;DHT22;10494;50.868;4.180;2024-03-17T10:44:50;13.20;99.90
20670;DHT22;10494;50.868;4.180;2024-03-17T10:47:24;13.10;99.90
20670;DHT22;10494;50.868;4.180;2024-03-17T10:49:55;13.20;99.90
20670;DHT22;10494;50.868;4.180;2024-03-17T10:52:22;13.10;99.90
20670;DHT22;10494;50.868;4.180;2024-03-17T10:54:50;13.10;99.90
20670;DHT22;10494;50.868;4.180;2024-03-17T11:00:00;13.50;99.90
20670;DHT22;10494;50.868;4.180;2024-03-17T11:02:29;13.70;99.90
20670;DHT22;10494;50.868;4.180;2024-03-17T11:05:07;13.90;99.90
20670;DHT22;10494;50.868;4.180;2024-03-17T11:07:39;14.30;99.90
20670;DHT22;10494;50.868;4.180;2024-03-17T11:13:00;14.40;99.90
20670;DHT22;10494;50.868;4.180;2024-03-17T11:20:41;14.40;99.90
20670;DHT22;10494;50.868;4.180;2024-03-17T11:23:07;14.50;99.90
20670;DHT22;10494;50.868;4.180;2024-03-17T11:25:38;14.50;99.90
20670;DHT22;10494;50.868;4.180;2024-03-17T11:28:08;14.70;99.90
20670;DHT22;10494;50.868;4.180;2024-03-17T11:46:45;15.50;99.90
20670;DHT22;10494;50.868;4.180;2024-03-17T11:49:22;15.70;99.90
20670;DHT22;10494;50.868;4.180;2024-03-17T11:51:48;15.70;99.90
20670;DHT22;10494;50.868;4.180;2024-03-17T11:54:16;15.60;99.90
20670;DHT22;10494;50.868;4.180;2024-03-17T11:56:55;15.70;99.90
20670;DHT22;10494;50.868;4.180;2024-03-17T11:59:21;15.70;99.90
20670;DHT22;10494;50.868;4.180;2024-03-17T12:01:49;15.80;99.90
20670;DHT22;10494;50.868;4.180;2024-03-17T12:04:15;16.00;99.90
20670;DHT22;10494;50.868;4.180;2024-03-17T12:06:48;16.20;99.90
20670;DHT22;10494;50.868;4.180;2024-03-17T12:09:28;16.10;99.90
20670;DHT22;10494;50.868;4.180;2024-03-17T12:12:06;16.00;99.90
20670;DHT22;10494;50.868;4.180;2024-03-17T12:14:33;16.10;99.90
20670;DHT22;10494;50.868;4.180;2024-03-17T12:17:08;16.00;99.90
20670;DHT22;10494;50.868;4.180;2024-03-17T12:19:34;15.80;99.90
20670;DHT22;10494;50.868;4.180;2024-03-17T12:22:02;15.70;99.90
20670;DHT22;10494;50.868;4.180;2024-03-17T12:24:32;15.40;99.90
20670;DHT22;10494;50.868;4.180;2024-03-17T12:26:59;15.30;99.90
20670;DHT22;10494;50.868;4.180;2024-03-17T12:29:32;15.20;99.90
20670;DHT22;10494;50.868;4.180;2024-03-17T12:32:00;15.30;99.90
20670;DHT22;10494;50.868;4.180;2024-03-17T12:34:30;15.20;99.90
20670;DHT22;10494;50.868;4.180;2024-03-17T12:36:58;15.10;99.90
20670;DHT22;10494;50.868;4.180;2024-03-17T12:39:28;15.10;99.90
20670;DHT22;10494;50.868;4.180;2024-03-17T12:42:02;15.20;99.90
20670;DHT22;10494;50.868;4.180;2024-03-17T12:44:31;15.40;99.90
20670;DHT22;10494;50.868;4.180;2024-03-17T12:46:58;15.50;99.90
20670;DHT22;10494;50.868;4.180;2024-03-17T12:49:32;15.80;99.90
20670;DHT22;10494;50.868;4.180;2024-03-17T12:52:01;16.10;99.90
20670;DHT22;10494;50.868;4.180;2024-03-17T12:54:28;16.50;99.90
20670;DHT22;10494;50.868;4.180;2024-03-17T12:57:05;16.60;99.90
20670;DHT22;10494;50.868;4.180;2024-03-17T12:59:50;16.50;99.90
20670;DHT22;10494;50.868;4.180;2024-03-17T13:02:34;16.50;99.90
20670;DHT22;10494;50.868;4.180;2024-03-17T13:07:44;16.20;99.90
20670;DHT22;10494;50.868;4.180;2024-03-17T13:10:14;16.20;99.90
20670;DHT22;10494;50.868;4.180;2024-03-17T13:12:40;16.30;99.90
20670;DHT22;10494;50.868;4.180;2024-03-17T13:15:09;16.30;99.90
20670;DHT22;10494;50.868;4.180;2024-03-17T13:17:36;16.20;99.90
20670;DHT22;10494;50.868;4.180;2024-03-17T13:20:02;16.50;99.90
20670;DHT22;10494;50.868;4.180;2024-03-17T13:22:28;16.60;99.90
20670;DHT22;10494;50.868;4.180;2024-03-17T13:24:53;16.60;99.90
20670;DHT22;10494;50.868;4.180;2024-03-17T13:27:19;16.60;99.90
20670;DHT22;10494;50.868;4.180;2024-03-17T13:29:48;16.60;99.90
20670;DHT22;10494;50.868;4.180;2024-03-17T13:32:14;16.70;99.90
20670;DHT22;10494;50.868;4.180;2024-03-17T13:34:41;16.50;99.90
20670;DHT22;10494;50.868;4.180;2024-03-17T13:37:06;16.20;99.90
20670;DHT22;10494;50.868;4.180;2024-03-17T13:39:33;16.10;99.90
20670;DHT22;10494;50.868;4.180;2024-03-17T13:41:59;16.10;99.90
20670;DHT22;10494;50.868;4.180;2024-03-17T13:44:29;16.10;99.90
20670;DHT22;10494;50.868;4.180;2024-03-17T13:46:55;16.10;99.90
20670;DHT22;10494;50.868;4.180;2024-03-17T13:49:21;15.80;99.90
20670;DHT22;10494;50.868;4.180;2024-03-17T13:51:46;15.40;99.90
20670;DHT22;10494;50.868;4.180;2024-03-17T13:54:12;15.40;99.90
20670;DHT22;10494;50.868;4.180;2024-03-17T13:56:37;15.30;99.90
20670;DHT22;10494;50.868;4.180;2024-03-17T13:59:03;15.20;99.90
20670;DHT22;10494;50.868;4.180;2024-03-17T14:01:29;15.20;99.90
20670;DHT22;10494;50.868;4.180;2024-03-17T14:03:55;15.10;99.90
20670;DHT22;10494;50.868;4.180;2024-03-17T14:06:21;15.10;99.90
20670;DHT22;10494;50.868;4.180;2024-03-17T14:08:47;15.10;99.90
20670;DHT22;10494;50.868;4.180;2024-03-17T14:11:13;15.00;99.90
20670;DHT22;10494;50.868;4.180;2024-03-17T14:13:38;14.80;99.90
20670;DHT22;10494;50.868;4.180;2024-03-17T14:16:04;14.80;99.90
20670;DHT22;10494;50.868;4.180;2024-03-17T14:18:31;14.90;99.90
20670;DHT22;10494;50.868;4.180;2024-03-17T14:20:58;14.90;99.90
20670;DHT22;10494;50.868;4.180;2024-03-17T14:23:24;15.00;99.90
20670;DHT22;10494;50.868;4.180;2024-03-17T14:25:50;14.90;99.90
20670;DHT22;10494;50.868;4.180;2024-03-17T14:28:16;14.70;99.90
20670;DHT22;10494;50.868;4.180;2024-03-17T14:30:42;14.60;99.90
20670;DHT22;10494;50.868;4.180;2024-03-17T14:33:07;14.60;99.90
20670;DHT22;10494;50.868;4.180;2024-03-17T14:35:33;14.60;99.90
20670;DHT22;10494;50.868;4.180;2024-03-17T14:37:59;14.60;99.90
20670;DHT22;10494;50.868;4.180;2024-03-17T14:40:25;14.70;99.90
20670;DHT22;10494;50.868;4.180;2024-03-17T14:42:54;14.70;99.90
20670;DHT22;10494;50.868;4.180;2024-03-17T14:45:21;14.70;99.90
20670;DHT22;10494;50.868;4.180;2024-03-17T14:47:49;14.70;99.90
20670;DHT22;10494;50.868;4.180;2024-03-17T14:50:15;14.70;99.90
20670;DHT22;10494;50.868;4.180;2024-03-17T14:52:42;14.60;99.90
20670;DHT22;10494;50.868;4.180;2024-03-17T14:55:09;14.40;99.90
20670;DHT22;10494;50.868;4.180;2024-03-17T14:57:38;14.40;99.90
20670;DHT22;10494;50.868;4.180;2024-03-17T15:00:09;14.50;99.90
20670;DHT22;10494;50.868;4.180;2024-03-17T15:02:46;14.50;99.90
20670;DHT22;10494;50.868;4.180;2024-03-17T15:05:13;14.50;99.90
20670;DHT22;10494;50.868;4.180;2024-03-17T15:07:40;14.50;99.90
20670;DHT22;10494;50.868;4.180;2024-03-17T15:10:06;14.40;99.90
20670;DHT22;10494;50.868;4.180;2024-03-17T15:12:34;14.30;99.90
20670;DHT22;10494;50.868;4.180;2024-03-17T15:14:59;14.30;99.90
20670;DHT22;10494;50.868;4.180;2024-03-17T15:17:25;14.30;99.90
20670;DHT22;10494;50.868;4.180;2024-03-17T15:19:51;14.30;99.90
20670;DHT22;10494;50.868;4.180;2024-03-17T15:22:16;14.20;99.90
20670;DHT22;10494;50.868;4.180;2024-03-17T15:24:42;14.00;99.90
20670;DHT22;10494;50.868;4.180;2024-03-17T15:27:08;14.00;99.90
20670;DHT22;10494;50.868;4.180;2024-03-17T15:29:35;13.90;99.90
20670;DHT22;10494;50.868;4.180;2024-03-17T15:32:01;13.80;99.90
20670;DHT22;10494;50.868;4.180;2024-03-17T15:34:26;13.90;99.90
20670;DHT22;10494;50.868;4.180;2024-03-17T15:36:56;13.90;99.90
20670;DHT22;10494;50.868;4.180;2024-03-17T15:39:22;13.80;99.90
20670;DHT22;10494;50.868;4.180;2024-03-17T15:41:50;13.80;99.90
20670;DHT22;10494;50.868;4.180;2024-03-17T15:44:16;13.70;99.90
20670;DHT22;10494;50.868;4.180;2024-03-17T15:46:42;13.60;99.90
20670;DHT22;10494;50.868;4.180;2024-03-17T15:49:08;13.50;99.90
20670;DHT22;10494;50.868;4.180;2024-03-17T15:51:34;13.50;99.90
20670;DHT22;10494;50.868;4.180;2024-03-17T15:53:59;13.60;99.90
20670;DHT22;10494;50.868;4.180;2024-03-17T15:56:25;13.60;99.90
20670;DHT22;10494;50.868;4.180;2024-03-17T15:58:52;13.60;99.90
20670;DHT22;10494;50.868;4.180;2024-03-17T16:01:18;13.70;99.90
20670;DHT22;10494;50.868;4.180;2024-03-17T16:03:44;13.80;99.90
20670;DHT22;10494;50.868;4.180;2024-03-17T16:06:16;13.80;99.90
20670;DHT22;10494;50.868;4.180;2024-03-17T16:08:47;13.80;99.90
20670;DHT22;10494;50.868;4.180;2024-03-17T16:11:15;13.80;99.90
20670;DHT22;10494;50.868;4.180;2024-03-17T16:13:43;13.80;99.90
20670;DHT22;10494;50.868;4.180;2024-03-17T16:16:17;13.70;99.90